25 Jun 2018 19:36 UTC 2018176+19:36 UTC

Overview Datums Bench Marks Data Query Site Visit Daily QC Messages Attributes

170: National Park Service - Baffin Bay

27° 17' 49" N   97° 24' 17" W
NPSBB
United States National Park Service United States National Park Service

Station Information

National Park Service - Baffin Bay
National Park Service - Baffin Bay
more pictures
 
Station Name:National Park Service - Baffin Bay
DNR ID:170
Location:27° 17' 49" N, 97° 24' 17" W

Water Level Forecasts

Latest Observations

Series Metric English Marine Observed at
Water Temperature 31.1 °C 88.0 °F 88.0 °F Jun 25 14:12 CDT
00h07m ago
Salinity 39.900 psu 39.900 psu 39.900 psu Jun 25 14:12 CDT
00h07m ago
pH 8.57 pH 8.57 pH 8.57 pH Jun 25 14:12 CDT
00h07m ago
Turbidity 10 ntu 10 ntu 10 ntu Jun 25 14:12 CDT
00h07m ago
Dissolved Oxygen 7.20 mg/L 0.000449 lb/ft3 0.000449 lb/ft3 Jun 25 14:12 CDT
00h07m ago

Maps

National Park Service - Baffin Bay
All Stations in Area
Entire Network
 

Recent Observations

Date/Time Water
Temp (°F)
Sal (psu) pH (pH) Turb (ntu) DO (lb/ft3)
Jun 25 14:00 CDT 87.6 40.000 8.54 7 0.000402
Jun 25 13:00 CDT 86.0 40.200 8.51 9 0.000449
Jun 25 12:00 CDT 84.9 40.600 8.46 6 0.000373
Jun 25 11:00 CDT 83.8 40.300 8.42 6 0.000410
Jun 25 10:00 CDT 83.1 40.100 8.37 4 0.000308
Jun 25 09:00 CDT 82.9 40.200 8.37 4 0.000262
Jun 25 08:00 CDT 82.9 40.000 8.38 4 0.000277
Jun 25 07:00 CDT 82.9 39.600 8.39 4 0.000248
Jun 25 06:00 CDT 82.9 39.100 8.38 4 0.000267
Jun 25 05:00 CDT 83.1 38.400 8.38 4 0.000286
Jun 25 04:00 CDT 83.1 37.700 8.39 4 0.000286
Jun 25 03:00 CDT 83.1 37.000 8.39 5 0.000275
Jun 25 02:00 CDT 83.3 36.800 8.38 5 0.000253
Jun 25 01:00 CDT 83.5 37.000 8.39 2 0.000240
Jun 25 00:00 CDT 83.7 36.700 8.39 3 0.000233
Jun 24 23:00 CDT 84.2 36.500 8.42 4 0.000272
Jun 24 22:00 CDT 84.7 36.600 8.46 4 0.000318
Jun 24 21:00 CDT 85.6 37.300 8.51 6 0.000401
Jun 24 20:00 CDT 86.7 37.400 8.54 8 0.000345
Jun 24 19:00 CDT 87.6 37.300 8.57 10 0.000373
Jun 24 18:00 CDT 88.3 37.200 8.55 9 0.000419
Jun 24 17:00 CDT 88.7 37.000 8.55 8 0.000421
Jun 24 16:00 CDT 88.7 36.900 8.54 9 0.000427
Jun 24 15:00 CDT 88.2 36.600 8.52 8 0.000368
Jun 24 14:00 CDT 87.4 36.400 8.52 5 0.000396

Historical Data Availability